createdAt,value
2018-09-15T00:00:13.514Z,95.75
2018-09-15T00:01:13.510Z,95.55
2018-09-15T00:02:13.511Z,95.36
2018-09-15T00:03:13.517Z,95.17
2018-09-15T00:04:13.523Z,94.98
2018-09-15T00:05:13.538Z,94.49
2018-09-15T00:06:13.522Z,94.01
2018-09-15T00:07:13.520Z,94.40
2018-09-15T00:08:13.524Z,94.40
2018-09-15T00:09:13.523Z,93.82
2018-09-15T00:10:13.540Z,93.82
2018-09-15T00:11:13.541Z,93.34
2018-09-15T00:12:13.536Z,93.05
2018-09-15T00:13:13.549Z,93.15
2018-09-15T00:14:13.535Z,93.34
2018-09-15T00:15:13.537Z,94.01
2018-09-15T00:16:13.538Z,93.44
2018-09-15T00:17:13.538Z,93.34
2018-09-15T00:18:13.554Z,92.86
2018-09-15T00:19:13.548Z,92.57
2018-09-15T00:20:13.543Z,92.47
2018-09-15T00:21:13.548Z,92.57
2018-09-15T00:22:13.562Z,91.75
2018-09-15T00:23:13.569Z,92.38
2018-09-15T00:24:13.557Z,92.76
2018-09-15T00:25:13.554Z,93.15
2018-09-15T00:26:13.568Z,93.24
2018-09-15T00:27:13.566Z,91.99
2018-09-15T00:28:13.556Z,91.75
2018-09-15T00:29:13.561Z,91.94
2018-09-15T00:30:13.565Z,91.36
2018-09-15T00:31:13.566Z,91.85
2018-09-15T00:32:13.563Z,92.38
2018-09-15T00:33:13.568Z,92.04
2018-09-15T00:34:13.567Z,92.43
2018-09-15T00:35:13.570Z,92.57
2018-09-15T00:36:13.575Z,92.57
2018-09-15T00:37:13.580Z,91.61
2018-09-15T00:38:13.581Z,91.03
2018-09-15T00:39:13.579Z,91.61
2018-09-15T00:40:13.581Z,90.84
2018-09-15T00:41:13.584Z,91.32
2018-09-15T00:42:13.580Z,92.09
2018-09-15T00:43:13.596Z,92.76
2018-09-15T00:44:13.595Z,93.34
2018-09-15T00:45:13.585Z,93.44
2018-09-15T00:46:13.600Z,93.44
2018-09-15T00:47:13.595Z,93.53
2018-09-15T00:48:13.598Z,92.96
2018-09-15T00:49:13.603Z,92.67
2018-09-15T00:50:13.598Z,93.05
2018-09-15T00:51:13.595Z,93.24
2018-09-15T00:52:13.595Z,93.34
2018-09-15T00:53:13.601Z,93.82
2018-09-15T00:54:13.607Z,92.76
2018-09-15T00:55:13.606Z,93.24
2018-09-15T00:56:13.609Z,93.44
2018-09-15T00:57:13.613Z,92.96
2018-09-15T00:58:13.614Z,91.94
2018-09-15T00:59:13.615Z,92.19
2018-09-15T01:00:13.613Z,92.38
2018-09-15T01:01:13.619Z,92.19
2018-09-15T01:02:13.621Z,92.86
2018-09-15T01:03:13.649Z,92.38
2018-09-15T01:04:13.625Z,91.71
2018-09-15T01:05:13.640Z,91.56
2018-09-15T01:06:13.634Z,91.17
2018-09-15T01:07:13.635Z,90.69
2018-09-15T01:08:13.628Z,92.23
2018-09-15T01:09:13.639Z,92.67
2018-09-15T01:10:13.638Z,92.19
2018-09-15T01:11:13.631Z,92.43
2018-09-15T01:12:13.637Z,91.99
2018-09-15T01:13:13.658Z,92.09
2018-09-15T01:14:13.718Z,91.61
2018-09-15T01:15:13.668Z,91.71
2018-09-15T01:16:13.655Z,91.99
2018-09-15T01:17:13.648Z,92.86
2018-09-15T01:18:13.654Z,93.39
2018-09-15T01:19:13.650Z,93.87
2018-09-15T01:20:13.654Z,94.35
2018-09-15T01:21:13.645Z,93.87
2018-09-15T01:22:13.675Z,93.77
2018-09-15T01:23:13.665Z,92.29
2018-09-15T01:24:13.680Z,92.09
2018-09-15T01:25:13.655Z,92.38
2018-09-15T01:26:13.662Z,92.57
2018-09-15T01:27:13.666Z,92.86
2018-09-15T01:28:13.671Z,92.96
2018-09-15T01:29:13.668Z,92.67
2018-09-15T01:30:13.668Z,92.57
2018-09-15T01:31:13.668Z,92.62
2018-09-15T01:32:13.674Z,93.10
2018-09-15T01:33:13.709Z,93.68
2018-09-15T01:34:13.671Z,93.77
2018-09-15T01:35:13.680Z,93.10
2018-09-15T01:36:13.682Z,93.19
2018-09-15T01:37:13.675Z,92.47
2018-09-15T01:38:13.672Z,91.61
2018-09-15T01:39:13.681Z,91.32
2018-09-15T01:40:13.682Z,92.67
2018-09-15T01:41:13.683Z,93.05
2018-09-15T01:42:13.685Z,93.19
2018-09-15T01:43:13.690Z,93.05
2018-09-15T01:44:13.686Z,93.34
2018-09-15T01:45:13.687Z,92.67
2018-09-15T01:46:13.693Z,91.99
2018-09-15T01:47:13.691Z,91.52
2018-09-15T01:48:13.710Z,91.90
2018-09-15T01:49:13.699Z,91.90
2018-09-15T01:50:13.700Z,91.80
2018-09-15T01:51:13.704Z,89.50
2018-09-15T01:52:13.706Z,89.98
2018-09-15T01:53:13.712Z,90.41
2018-09-15T01:54:13.706Z,91.28
2018-09-15T01:55:13.709Z,90.75
2018-09-15T01:56:13.709Z,89.50
2018-09-15T01:57:13.736Z,89.01
2018-09-15T01:58:13.716Z,88.68
2018-09-15T01:59:13.716Z,89.93
2018-09-15T02:00:13.710Z,90.22
2018-09-15T02:01:13.728Z,90.12
2018-09-15T02:02:13.727Z,90.17
2018-09-15T02:03:13.721Z,89.07
2018-09-15T02:04:13.730Z,90.31
2018-09-15T02:05:13.731Z,90.80
2018-09-15T02:06:13.724Z,91.08
2018-09-15T02:07:13.738Z,90.94
2018-09-15T02:08:13.736Z,91.08
2018-09-15T02:09:13.750Z,90.60
2018-09-15T02:10:13.730Z,90.70
2018-09-15T02:11:13.761Z,90.31
2018-09-15T02:12:13.739Z,89.93
2018-09-15T02:13:13.731Z,89.93
2018-09-15T02:14:13.745Z,89.93
2018-09-15T02:15:13.741Z,89.93
2018-09-15T02:16:22.374Z,89.16
2018-09-15T02:18:07.173Z,88.78
2018-09-15T02:19:07.144Z,89.64
2018-09-15T02:20:07.142Z,88.87
2018-09-15T02:21:07.138Z,89.89
2018-09-15T02:22:07.144Z,90.31
2018-09-15T02:23:07.211Z,89.93
2018-09-15T02:24:07.145Z,89.93
2018-09-15T02:25:07.151Z,89.54
2018-09-15T02:26:07.151Z,89.93
2018-09-15T02:27:07.156Z,89.45
2018-09-15T02:28:07.153Z,89.74
2018-09-15T02:29:07.379Z,89.26
2018-09-15T02:30:07.150Z,90.12
2018-09-15T02:31:07.152Z,90.56
2018-09-15T02:32:07.158Z,90.41
2018-09-15T02:33:07.160Z,89.69
2018-09-15T02:34:07.155Z,90.70
2018-09-15T02:35:07.159Z,90.17
2018-09-15T02:36:07.160Z,90.66
2018-09-15T02:37:07.163Z,90.84
2018-09-15T02:38:07.165Z,90.27
2018-09-15T02:39:07.163Z,91.04
2018-09-15T02:40:07.167Z,91.81
2018-09-15T02:41:07.168Z,91.42
2018-09-15T02:42:07.169Z,90.89
2018-09-15T02:43:07.170Z,90.75
2018-09-15T02:44:07.172Z,91.33
2018-09-15T02:45:07.172Z,91.23
2018-09-15T02:46:07.171Z,90.75
2018-09-15T02:47:07.177Z,91.23
2018-09-15T02:48:07.172Z,92.00
2018-09-15T02:49:07.173Z,92.29
2018-09-15T02:50:07.184Z,92.29
2018-09-15T02:51:07.193Z,91.90
2018-09-15T02:52:07.226Z,92.00
2018-09-15T02:53:07.192Z,92.10
2018-09-15T02:54:07.216Z,91.96
2018-09-15T02:55:07.187Z,91.04
2018-09-15T03:14:30.074Z,91.23
2018-09-15T03:15:30.055Z,91.47
2018-09-15T03:16:30.046Z,91.47
2018-09-15T03:17:30.038Z,90.46
2018-09-15T03:18:30.037Z,90.56
2018-09-15T03:19:30.050Z,89.31
2018-09-15T03:20:30.045Z,89.12
2018-09-15T03:21:30.034Z,89.31
2018-09-15T03:22:30.038Z,88.54
2018-09-15T03:23:30.027Z,88.45
2018-09-15T03:24:30.025Z,89.02
2018-09-15T03:25:30.025Z,90.22
2018-09-15T03:26:30.032Z,91.09
2018-09-15T03:27:30.026Z,91.66
2018-09-15T03:28:30.025Z,91.09
2018-09-15T03:29:30.032Z,91.09
2018-09-15T03:30:30.027Z,90.61
2018-09-15T03:31:30.027Z,90.70
2018-09-15T03:32:30.027Z,90.52
2018-09-15T03:33:30.022Z,90.32
2018-09-15T03:34:30.027Z,89.79
2018-09-15T03:35:30.022Z,89.94
2018-09-15T03:36:30.020Z,90.52
2018-09-15T03:37:30.032Z,89.65
2018-09-15T03:38:30.031Z,89.94
2018-09-15T03:39:30.028Z,90.22
2018-09-15T03:40:30.075Z,90.32
2018-09-15T03:41:30.075Z,89.26
2018-09-15T03:42:30.030Z,90.95
2018-09-15T03:43:30.029Z,91.62
2018-09-15T03:44:30.029Z,90.18
2018-09-15T03:45:30.027Z,92.10
2018-09-15T03:46:30.027Z,92.00
2018-09-15T03:47:30.026Z,91.62
2018-09-15T03:48:30.029Z,91.14
2018-09-15T03:49:30.028Z,91.81
2018-09-15T03:50:30.031Z,92.10
2018-09-15T03:51:30.034Z,92.00
2018-09-15T03:52:30.039Z,91.81
2018-09-15T03:53:30.029Z,90.03
2018-09-15T03:54:30.047Z,89.17
2018-09-15T03:55:30.057Z,88.73
2018-09-15T03:56:30.068Z,88.98
2018-09-15T03:57:30.028Z,90.47
2018-09-15T03:58:30.034Z,91.24
2018-09-15T03:59:30.088Z,92.72
2018-09-15T04:00:30.037Z,93.01
2018-09-15T04:01:30.048Z,92.48
2018-09-15T04:02:30.033Z,91.62
2018-09-15T04:03:30.059Z,92.39
2018-09-15T04:04:30.091Z,90.95
2018-09-15T04:05:30.048Z,92.10
2018-09-15T04:06:30.047Z,92.00
2018-09-15T04:07:30.039Z,91.24
2018-09-15T04:08:30.035Z,89.84
2018-09-15T04:09:30.045Z,88.79
2018-09-15T04:10:30.052Z,88.69
2018-09-15T04:11:30.035Z,89.89
2018-09-15T04:12:30.040Z,90.37
2018-09-15T04:13:30.035Z,91.05
2018-09-15T04:14:30.045Z,91.14
2018-09-15T04:15:38.680Z,91.33
2018-09-15T04:17:33.514Z,89.89
2018-09-15T04:18:24.429Z,91.67
2018-09-15T04:19:24.430Z,91.33
2018-09-15T04:20:24.415Z,90.47
2018-09-15T04:21:24.421Z,89.17
2018-09-15T04:22:24.423Z,88.49
2018-09-15T04:23:24.430Z,88.40
2018-09-15T04:24:24.434Z,89.51
2018-09-15T04:25:24.436Z,89.22
2018-09-15T04:26:24.419Z,89.70
2018-09-15T04:27:24.420Z,91.14
2018-09-15T04:28:24.472Z,89.70
2018-09-15T04:29:24.423Z,89.12
2018-09-15T04:30:24.421Z,90.66
2018-09-15T04:31:24.429Z,90.66
2018-09-15T04:32:24.431Z,89.41
2018-09-15T04:33:24.428Z,87.92
2018-09-15T04:34:24.422Z,88.40
2018-09-15T04:35:24.464Z,87.73
2018-09-15T04:36:24.450Z,88.02
2018-09-15T04:37:24.448Z,89.32
2018-09-15T04:38:24.447Z,89.41
2018-09-15T04:39:24.442Z,87.73
2018-09-15T04:40:24.423Z,88.93
2018-09-15T04:41:24.420Z,90.08
2018-09-15T04:42:24.435Z,90.18
2018-09-15T04:43:24.450Z,89.12
2018-09-15T04:44:24.445Z,88.35
2018-09-15T04:45:24.419Z,88.45
2018-09-15T04:46:24.447Z,88.45
2018-09-15T04:47:24.426Z,89.79
2018-09-15T04:48:24.448Z,89.03
2018-09-15T04:49:24.437Z,89.41
2018-09-15T04:50:24.455Z,88.59
2018-09-15T04:51:24.451Z,86.19
2018-09-15T04:52:24.427Z,86.52
2018-09-15T04:53:24.424Z,85.85
2018-09-15T04:54:24.423Z,86.68
2018-09-15T04:55:24.431Z,86.68
2018-09-15T04:56:24.446Z,89.12
2018-09-15T04:57:24.429Z,91.09
2018-09-15T04:58:24.437Z,91.28
2018-09-15T04:59:24.491Z,92.10
2018-09-15T05:00:24.456Z,92.20
2018-09-15T05:01:24.425Z,91.09
2018-09-15T05:02:24.444Z,92.20
2018-09-15T05:03:24.430Z,91.57
2018-09-15T05:04:24.453Z,89.61
2018-09-15T05:05:24.444Z,88.07
2018-09-15T05:06:24.467Z,89.03
2018-09-15T05:07:24.445Z,87.68
2018-09-15T05:08:24.436Z,86.48
2018-09-15T05:09:24.430Z,86.25
2018-09-15T05:10:24.438Z,88.74
2018-09-15T05:11:24.430Z,88.70
2018-09-15T05:12:24.500Z,88.17
2018-09-15T05:13:24.458Z,88.17
2018-09-15T05:14:24.430Z,89.37
2018-09-15T05:15:24.431Z,88.26
2018-09-15T05:16:24.433Z,88.45
2018-09-15T05:17:24.423Z,88.41
2018-09-15T05:19:54.534Z,86.25
2018-09-15T05:20:45.449Z,86.72
2018-09-15T05:21:45.446Z,86.63
2018-09-15T05:22:45.451Z,87.78
2018-09-15T05:23:54.117Z,87.49
2018-09-15T05:25:47.920Z,86.25
2018-09-15T05:26:38.845Z,85.91
2018-09-15T05:29:08.952Z,89.18
2018-09-15T05:30:08.495Z,89.08
2018-09-15T05:31:53.340Z,90.38
2018-09-15T05:33:00.453Z,90.47
2018-09-15T05:34:46.673Z,90.09
